sensor_id;sensor_type;location;lat;lon;timestamp;pressure;altitude;pressure_sealevel;temperature;humidity
68948;BME280;55996;49.546;7.400;2023-12-20T00:01:00;98751.69;;;3.64;100.00
68948;BME280;55996;49.546;7.400;2023-12-20T00:03:25;98747.41;;;3.62;100.00
68948;BME280;55996;49.546;7.400;2023-12-20T00:05:51;98750.88;;;3.58;100.00
68948;BME280;55996;49.546;7.400;2023-12-20T00:08:17;98757.78;;;3.59;100.00
68948;BME280;55996;49.546;7.400;2023-12-20T00:10:45;98748.25;;;3.68;100.00
68948;BME280;55996;49.546;7.400;2023-12-20T00:13:11;98744.78;;;3.68;100.00
68948;BME280;55996;49.546;7.400;2023-12-20T00:15:36;98737.03;;;3.68;100.00
68948;BME280;55996;49.546;7.400;2023-12-20T00:18:02;98754.31;;;3.57;100.00
68948;BME280;55996;49.546;7.400;2023-12-20T00:20:28;98737.06;;;3.62;100.00
68948;BME280;55996;49.546;7.400;2023-12-20T00:22:57;98741.38;;;3.60;100.00
68948;BME280;55996;49.546;7.400;2023-12-20T00:25:23;98746.50;;;3.70;100.00
68948;BME280;55996;49.546;7.400;2023-12-20T00:27:48;98744.75;;;3.77;100.00
68948;BME280;55996;49.546;7.400;2023-12-20T00:30:14;98735.28;;;3.73;100.00
68948;BME280;55996;49.546;7.400;2023-12-20T00:32:39;98728.44;;;3.63;100.00
68948;BME280;55996;49.546;7.400;2023-12-20T00:35:11;98725.81;;;3.72;100.00
68948;BME280;55996;49.546;7.400;2023-12-20T00:37:36;98745.63;;;3.76;100.00
68948;BME280;55996;49.546;7.400;2023-12-20T00:40:02;98738.72;;;3.72;100.00
68948;BME280;55996;49.546;7.400;2023-12-20T00:42:27;98726.69;;;3.72;100.00
68948;BME280;55996;49.546;7.400;2023-12-20T00:44:53;98734.44;;;3.69;100.00
68948;BME280;55996;49.546;7.400;2023-12-20T00:47:18;98725.75;;;3.83;100.00
68948;BME280;55996;49.546;7.400;2023-12-20T00:49:44;98726.63;;;3.83;100.00
68948;BME280;55996;49.546;7.400;2023-12-20T00:52:09;98713.72;;;3.83;100.00
68948;BME280;55996;49.546;7.400;2023-12-20T00:54:34;98718.00;;;3.81;100.00
68948;BME280;55996;49.546;7.400;2023-12-20T00:57:00;98715.41;;;3.83;100.00
68948;BME280;55996;49.546;7.400;2023-12-20T00:59:25;98705.06;;;3.83;100.00
68948;BME280;55996;49.546;7.400;2023-12-20T01:01:50;98704.19;;;3.88;100.00
68948;BME280;55996;49.546;7.400;2023-12-20T01:04:16;98711.09;;;3.85;100.00
68948;BME280;55996;49.546;7.400;2023-12-20T01:06:41;98725.75;;;3.86;100.00
68948;BME280;55996;49.546;7.400;2023-12-20T01:09:07;98721.44;;;3.85;100.00
68948;BME280;55996;49.546;7.400;2023-12-20T01:11:32;98723.16;;;3.84;100.00
68948;BME280;55996;49.546;7.400;2023-12-20T01:13:57;98708.56;;;3.79;100.00
68948;BME280;55996;49.546;7.400;2023-12-20T01:16:23;98715.41;;;3.83;100.00
68948;BME280;55996;49.546;7.400;2023-12-20T01:18:48;98713.69;;;3.85;100.00
68948;BME280;55996;49.546;7.400;2023-12-20T01:21:14;98711.13;;;3.80;100.00
68948;BME280;55996;49.546;7.400;2023-12-20T01:23:39;98712.84;;;3.78;100.00
68948;BME280;55996;49.546;7.400;2023-12-20T01:26:05;98711.13;;;3.83;100.00
68948;BME280;55996;49.546;7.400;2023-12-20T01:28:30;98716.25;;;3.88;100.00
68948;BME280;55996;49.546;7.400;2023-12-20T01:30:57;98711.94;;;3.88;100.00
68948;BME280;55996;49.546;7.400;2023-12-20T01:33:22;98710.22;;;3.89;100.00
68948;BME280;55996;49.546;7.400;2023-12-20T01:35:47;98710.22;;;3.87;100.00
68948;BME280;55996;49.546;7.400;2023-12-20T01:38:13;98705.94;;;3.80;100.00
68948;BME280;55996;49.546;7.400;2023-12-20T01:40:38;98721.47;;;3.80;100.00
68948;BME280;55996;49.546;7.400;2023-12-20T01:43:08;98721.50;;;3.77;100.00
68948;BME280;55996;49.546;7.400;2023-12-20T01:45:34;98714.53;;;3.88;100.00
68948;BME280;55996;49.546;7.400;2023-12-20T01:47:59;98711.09;;;3.86;100.00
68948;BME280;55996;49.546;7.400;2023-12-20T01:50:27;98706.72;;;3.96;100.00
68948;BME280;55996;49.546;7.400;2023-12-20T01:52:55;98711.06;;;3.91;100.00
68948;BME280;55996;49.546;7.400;2023-12-20T01:55:23;98715.38;;;3.91;100.00
68948;BME280;55996;49.546;7.400;2023-12-20T01:57:48;98722.25;;;3.92;100.00
68948;BME280;55996;49.546;7.400;2023-12-20T02:00:14;98721.47;;;3.83;100.00
68948;BME280;55996;49.546;7.400;2023-12-20T02:02:40;98717.06;;;3.96;100.00
68948;BME280;55996;49.546;7.400;2023-12-20T02:05:06;98726.50;;;4.05;100.00
68948;BME280;55996;49.546;7.400;2023-12-20T02:07:32;98702.34;;;4.06;100.00
68948;BME280;55996;49.546;7.400;2023-12-20T02:09:59;98721.28;;;4.11;100.00
68948;BME280;55996;49.546;7.400;2023-12-20T02:12:24;98711.81;;;4.10;100.00
68948;BME280;55996;49.546;7.400;2023-12-20T02:14:50;98717.78;;;4.15;100.00
68948;BME280;55996;49.546;7.400;2023-12-20T02:17:16;98721.19;;;4.24;100.00
68948;BME280;55996;49.546;7.400;2023-12-20T02:19:41;98706.63;;;4.13;100.00
68948;BME280;55996;49.546;7.400;2023-12-20T02:22:13;98698.06;;;4.00;100.00
68948;BME280;55996;49.546;7.400;2023-12-20T02:24:38;98669.50;;;4.17;100.00
68948;BME280;55996;49.546;7.400;2023-12-20T02:27:06;98693.69;;;4.13;100.00
68948;BME280;55996;49.546;7.400;2023-12-20T02:29:36;98704.03;;;4.13;100.00
68948;BME280;55996;49.546;7.400;2023-12-20T02:32:01;98698.84;;;4.15;100.00
68948;BME280;55996;49.546;7.400;2023-12-20T02:34:27;98718.69;;;4.14;100.00
68948;BME280;55996;49.546;7.400;2023-12-20T02:36:52;98673.91;;;4.06;100.00
68948;BME280;55996;49.546;7.400;2023-12-20T02:39:19;98697.88;;;4.30;100.00
68948;BME280;55996;49.546;7.400;2023-12-20T02:41:44;98706.59;;;4.19;100.00
68948;BME280;55996;49.546;7.400;2023-12-20T02:44:10;98703.16;;;4.13;100.00
68948;BME280;55996;49.546;7.400;2023-12-20T02:46:35;98683.38;;;4.07;100.00
68948;BME280;55996;49.546;7.400;2023-12-20T02:49:00;98709.16;;;4.21;100.00
68948;BME280;55996;49.546;7.400;2023-12-20T02:51:26;98723.84;;;4.17;100.00
68948;BME280;55996;49.546;7.400;2023-12-20T02:53:51;98721.25;;;4.20;100.00
68948;BME280;55996;49.546;7.400;2023-12-20T02:56:16;98736.75;;;4.22;100.00
68948;BME280;55996;49.546;7.400;2023-12-20T02:58:42;98729.00;;;4.19;100.00
68948;BME280;55996;49.546;7.400;2023-12-20T03:01:07;98722.94;;;4.25;100.00
68948;BME280;55996;49.546;7.400;2023-12-20T03:03:32;98720.28;;;4.31;100.00
68948;BME280;55996;49.546;7.400;2023-12-20T03:05:58;98735.84;;;4.29;100.00
68948;BME280;55996;49.546;7.400;2023-12-20T03:08:23;98722.94;;;4.25;100.00
68948;BME280;55996;49.546;7.400;2023-12-20T03:10:49;98728.09;;;4.26;100.00
68948;BME280;55996;49.546;7.400;2023-12-20T03:13:14;98734.13;;;4.28;100.00
68948;BME280;55996;49.546;7.400;2023-12-20T03:15:40;98718.56;;;4.30;100.00
68948;BME280;55996;49.546;7.400;2023-12-20T03:18:05;98726.28;;;4.39;100.00
68948;BME280;55996;49.546;7.400;2023-12-20T03:20:31;98733.16;;;4.40;100.00
68948;BME280;55996;49.546;7.400;2023-12-20T03:23:01;98712.50;;;4.37;100.00
68948;BME280;55996;49.546;7.400;2023-12-20T03:25:27;98707.31;;;4.34;100.00
68948;BME280;55996;49.546;7.400;2023-12-20T03:27:52;98723.69;;;4.38;100.00
68948;BME280;55996;49.546;7.400;2023-12-20T03:30:18;98737.50;;;4.36;100.00
68948;BME280;55996;49.546;7.400;2023-12-20T03:32:44;98731.41;;;4.45;100.00
68948;BME280;55996;49.546;7.400;2023-12-20T03:35:09;98732.28;;;4.43;100.00
68948;BME280;55996;49.546;7.400;2023-12-20T03:37:35;98745.28;;;4.33;100.00
68948;BME280;55996;49.546;7.400;2023-12-20T03:40:01;98740.03;;;4.43;100.00
68948;BME280;55996;49.546;7.400;2023-12-20T03:42:26;98723.75;;;4.30;100.00
68948;BME280;55996;49.546;7.400;2023-12-20T03:44:51;98746.06;;;4.45;100.00
68948;BME280;55996;49.546;7.400;2023-12-20T03:47:17;98765.03;;;4.48;100.00
68948;BME280;55996;49.546;7.400;2023-12-20T03:49:42;98746.06;;;4.45;100.00
68948;BME280;55996;49.546;7.400;2023-12-20T03:52:07;98748.53;;;4.63;100.00
68948;BME280;55996;49.546;7.400;2023-12-20T03:54:34;98755.50;;;4.52;100.00
68948;BME280;55996;49.546;7.400;2023-12-20T03:57:00;98756.31;;;4.60;100.00
68948;BME280;55996;49.546;7.400;2023-12-20T03:59:25;98763.25;;;4.55;100.00
68948;BME280;55996;49.546;7.400;2023-12-20T04:01:50;98745.09;;;4.60;100.00
68948;BME280;55996;49.546;7.400;2023-12-20T04:04:16;98744.16;;;4.72;100.00
68948;BME280;55996;49.546;7.400;2023-12-20T04:06:41;98739.94;;;4.58;100.00
68948;BME280;55996;49.546;7.400;2023-12-20T04:09:06;98746.78;;;4.65;100.00
68948;BME280;55996;49.546;7.400;2023-12-20T04:11:34;98752.91;;;4.57;100.00
68948;BME280;55996;49.546;7.400;2023-12-20T04:13:59;98760.59;;;4.66;100.00
68948;BME280;55996;49.546;7.400;2023-12-20T04:16:26;98764.03;;;4.66;100.00
68948;BME280;55996;49.546;7.400;2023-12-20T04:18:51;98759.75;;;4.62;100.00
68948;BME280;55996;49.546;7.400;2023-12-20T04:21:17;98768.34;;;4.66;100.00
68948;BME280;55996;49.546;7.400;2023-12-20T04:23:43;98770.88;;;4.75;100.00
68948;BME280;55996;49.546;7.400;2023-12-20T04:26:08;98760.56;;;4.69;100.00
68948;BME280;55996;49.546;7.400;2023-12-20T04:28:34;98757.97;;;4.67;100.00
68948;BME280;55996;49.546;7.400;2023-12-20T04:30:59;98773.53;;;4.69;100.00
68948;BME280;55996;49.546;7.400;2023-12-20T04:33:24;98776.94;;;4.71;100.00
68948;BME280;55996;49.546;7.400;2023-12-20T04:35:50;98776.09;;;4.67;100.00
68948;BME280;55996;49.546;7.400;2023-12-20T04:38:15;98784.78;;;4.62;100.00
68948;BME280;55996;49.546;7.400;2023-12-20T04:40:41;98786.53;;;4.58;100.00
68948;BME280;55996;49.546;7.400;2023-12-20T04:43:07;98786.59;;;4.47;100.00
68948;BME280;55996;49.546;7.400;2023-12-20T04:45:34;98762.59;;;4.27;100.00
68948;BME280;55996;49.546;7.400;2023-12-20T04:47:59;98781.56;;;4.24;100.00
68948;BME280;55996;49.546;7.400;2023-12-20T04:50:24;98773.88;;;4.13;100.00
68948;BME280;55996;49.546;7.400;2023-12-20T04:52:51;98787.75;;;4.01;100.00
68948;BME280;55996;49.546;7.400;2023-12-20T04:55:16;98790.38;;;3.94;100.00
68948;BME280;55996;49.546;7.400;2023-12-20T04:57:42;98797.31;;;3.79;100.00
68948;BME280;55996;49.546;7.400;2023-12-20T05:00:08;98790.47;;;3.60;100.00
68948;BME280;55996;49.546;7.400;2023-12-20T05:02:37;98808.56;;;3.67;100.00
68948;BME280;55996;49.546;7.400;2023-12-20T05:05:02;98821.53;;;3.57;100.00
68948;BME280;55996;49.546;7.400;2023-12-20T05:07:28;98819.81;;;3.45;100.00
68948;BME280;55996;49.546;7.400;2023-12-20T05:09:53;98828.47;;;3.31;100.00
68948;BME280;55996;49.546;7.400;2023-12-20T05:12:19;98838.78;;;3.30;100.00
68948;BME280;55996;49.546;7.400;2023-12-20T05:14:44;98850.00;;;3.21;100.00
68948;BME280;55996;49.546;7.400;2023-12-20T05:17:09;98850.88;;;3.21;100.00
68948;BME280;55996;49.546;7.400;2023-12-20T05:19:35;98843.13;;;3.28;100.00
68948;BME280;55996;49.546;7.400;2023-12-20T05:22:01;98848.28;;;3.37;100.00
68948;BME280;55996;49.546;7.400;2023-12-20T05:24:27;98849.13;;;3.45;100.00
68948;BME280;55996;49.546;7.400;2023-12-20T05:26:52;98860.31;;;3.50;100.00
68948;BME280;55996;49.546;7.400;2023-12-20T05:29:18;98852.56;;;3.49;100.00
68948;BME280;55996;49.546;7.400;2023-12-20T05:31:43;98851.69;;;3.53;100.00
68948;BME280;55996;49.546;7.400;2023-12-20T05:34:08;98843.09;;;3.48;100.00
68948;BME280;55996;49.546;7.400;2023-12-20T05:36:34;98850.84;;;3.46;100.00
68948;BME280;55996;49.546;7.400;2023-12-20T05:38:59;98857.72;;;3.47;100.00
68948;BME280;55996;49.546;7.400;2023-12-20T05:41:24;98864.63;;;3.53;100.00
68948;BME280;55996;49.546;7.400;2023-12-20T05:43:50;98852.59;;;3.32;100.00
68948;BME280;55996;49.546;7.400;2023-12-20T05:46:15;98857.75;;;3.36;100.00
68948;BME280;55996;49.546;7.400;2023-12-20T05:48:41;98856.91;;;3.27;100.00
68948;BME280;55996;49.546;7.400;2023-12-20T05:51:06;98846.59;;;3.19;100.00
68948;BME280;55996;49.546;7.400;2023-12-20T05:53:31;98842.25;;;3.24;100.00
68948;BME280;55996;49.546;7.400;2023-12-20T05:55:57;98849.16;;;3.14;100.00
68948;BME280;55996;49.546;7.400;2023-12-20T05:58:22;98868.94;;;3.00;100.00
68948;BME280;55996;49.546;7.400;2023-12-20T06:00:47;98875.84;;;3.05;100.00
68948;BME280;55996;49.546;7.400;2023-12-20T06:03:14;98888.75;;;2.79;100.00
68948;BME280;55996;49.546;7.400;2023-12-20T06:05:39;98881.81;;;2.69;100.00
68948;BME280;55996;49.546;7.400;2023-12-20T06:08:05;98897.31;;;2.77;100.00
68948;BME280;55996;49.546;7.400;2023-12-20T06:10:30;98892.16;;;2.60;100.00
68948;BME280;55996;49.546;7.400;2023-12-20T06:12:55;98878.38;;;2.70;100.00
68948;BME280;55996;49.546;7.400;2023-12-20T06:15:21;98888.72;;;2.76;100.00
68948;BME280;55996;49.546;7.400;2023-12-20T06:17:47;98881.84;;;2.75;100.00
68948;BME280;55996;49.546;7.400;2023-12-20T06:20:12;98877.56;;;2.82;100.00
68948;BME280;55996;49.546;7.400;2023-12-20T06:22:38;98874.06;;;2.69;100.00
68948;BME280;55996;49.546;7.400;2023-12-20T06:25:04;98895.63;;;2.83;100.00
68948;BME280;55996;49.546;7.400;2023-12-20T06:27:30;98900.78;;;2.80;100.00
68948;BME280;55996;49.546;7.400;2023-12-20T06:29:57;98899.91;;;2.72;100.00
68948;BME280;55996;49.546;7.400;2023-12-20T06:32:23;98893.03;;;2.76;100.00
68948;BME280;55996;49.546;7.400;2023-12-20T06:34:48;98893.06;;;2.96;100.00
68948;BME280;55996;49.546;7.400;2023-12-20T06:37:14;98890.47;;;2.99;100.00
68948;BME280;55996;49.546;7.400;2023-12-20T06:39:40;98885.31;;;3.10;100.00
68948;BME280;55996;49.546;7.400;2023-12-20T06:42:06;98890.50;;;3.13;100.00
68948;BME280;55996;49.546;7.400;2023-12-20T06:44:31;98894.78;;;3.25;100.00
68948;BME280;55996;49.546;7.400;2023-12-20T06:46:57;98900.81;;;3.30;100.00
68948;BME280;55996;49.546;7.400;2023-12-20T06:49:22;98894.78;;;3.23;100.00
68948;BME280;55996;49.546;7.400;2023-12-20T06:51:48;98892.22;;;3.34;100.00
68948;BME280;55996;49.546;7.400;2023-12-20T06:54:13;98894.78;;;3.31;100.00
68948;BME280;55996;49.546;7.400;2023-12-20T06:56:38;98895.66;;;3.28;100.00
68948;BME280;55996;49.546;7.400;2023-12-20T06:59:04;98888.78;;;3.24;100.00
68948;BME280;55996;49.546;7.400;2023-12-20T07:01:29;98890.50;;;3.27;100.00
68948;BME280;55996;49.546;7.400;2023-12-20T07:03:55;98892.19;;;3.25;100.00
68948;BME280;55996;49.546;7.400;2023-12-20T07:06:20;98892.22;;;3.21;100.00
68948;BME280;55996;49.546;7.400;2023-12-20T07:08:45;98899.94;;;3.25;100.00
68948;BME280;55996;49.546;7.400;2023-12-20T07:11:11;98910.31;;;3.28;100.00
68948;BME280;55996;49.546;7.400;2023-12-20T07:13:36;98912.03;;;3.18;100.00
68948;BME280;55996;49.546;7.400;2023-12-20T07:16:02;98911.16;;;3.08;100.00
68948;BME280;55996;49.546;7.400;2023-12-20T07:18:28;98907.69;;;2.92;100.00
68948;BME280;55996;49.546;7.400;2023-12-20T07:20:53;98905.97;;;3.02;100.00
68948;BME280;55996;49.546;7.400;2023-12-20T07:23:19;98914.59;;;3.07;100.00
68948;BME280;55996;49.546;7.400;2023-12-20T07:25:45;98918.91;;;2.94;100.00
68948;BME280;55996;49.546;7.400;2023-12-20T07:28:10;98905.97;;;2.94;100.00
68948;BME280;55996;49.546;7.400;2023-12-20T07:30:36;98918.03;;;3.00;100.00
68948;BME280;55996;49.546;7.400;2023-12-20T07:33:01;98916.28;;;2.83;100.00
68948;BME280;55996;49.546;7.400;2023-12-20T07:35:27;98936.09;;;2.90;100.00
68948;BME280;55996;49.546;7.400;2023-12-20T07:37:53;98942.13;;;2.96;100.00
68948;BME280;55996;49.546;7.400;2023-12-20T07:40:18;98949.00;;;2.92;100.00
68948;BME280;55996;49.546;7.400;2023-12-20T07:42:43;98946.44;;;2.90;100.00
68948;BME280;55996;49.546;7.400;2023-12-20T07:45:09;98934.34;;;2.85;100.00
68948;BME280;55996;49.546;7.400;2023-12-20T07:47:35;98947.25;;;2.80;100.00
68948;BME280;55996;49.546;7.400;2023-12-20T07:50:01;98949.84;;;2.93;100.00
68948;BME280;55996;49.546;7.400;2023-12-20T07:52:28;98951.59;;;2.97;100.00
68948;BME280;55996;49.546;7.400;2023-12-20T07:54:54;98947.28;;;2.93;100.00
68948;BME280;55996;49.546;7.400;2023-12-20T07:57:19;98956.75;;;2.94;100.00
68948;BME280;55996;49.546;7.400;2023-12-20T07:59:45;98947.28;;;2.97;100.00
68948;BME280;55996;49.546;7.400;2023-12-20T08:02:10;98955.91;;;3.07;100.00
68948;BME280;55996;49.546;7.400;2023-12-20T08:04:35;98954.22;;;3.09;100.00
68948;BME280;55996;49.546;7.400;2023-12-20T08:07:01;98950.75;;;3.07;100.00
68948;BME280;55996;49.546;7.400;2023-12-20T08:09:27;98951.63;;;3.12;100.00
68948;BME280;55996;49.546;7.400;2023-12-20T08:11:52;98963.69;;;3.19;100.00
68948;BME280;55996;49.546;7.400;2023-12-20T08:14:17;98970.56;;;3.16;100.00
68948;BME280;55996;49.546;7.400;2023-12-20T08:16:43;98969.72;;;3.29;100.00
68948;BME280;55996;49.546;7.400;2023-12-20T08:19:08;98971.47;;;3.44;100.00
68948;BME280;55996;49.546;7.400;2023-12-20T08:21:34;98962.00;;;3.46;100.00
68948;BME280;55996;49.546;7.400;2023-12-20T08:23:59;98961.97;;;3.55;100.00
68948;BME280;55996;49.546;7.400;2023-12-20T08:26:26;98959.38;;;3.51;100.00
68948;BME280;55996;49.546;7.400;2023-12-20T08:28:51;98961.09;;;3.58;100.00
68948;BME280;55996;49.546;7.400;2023-12-20T08:31:17;98974.03;;;3.70;100.00
68948;BME280;55996;49.546;7.400;2023-12-20T08:33:45;98967.16;;;3.77;100.00
68948;BME280;55996;49.546;7.400;2023-12-20T08:36:11;98969.72;;;3.86;100.00
68948;BME280;55996;49.546;7.400;2023-12-20T08:38:36;98962.84;;;3.68;100.00
68948;BME280;55996;49.546;7.400;2023-12-20T08:41:02;98960.22;;;3.93;100.00
68948;BME280;55996;49.546;7.400;2023-12-20T08:43:30;98966.25;;;3.91;100.00
68948;BME280;55996;49.546;7.400;2023-12-20T08:45:55;98961.09;;;3.92;100.00
68948;BME280;55996;49.546;7.400;2023-12-20T08:48:21;98961.03;;;4.12;100.00
68948;BME280;55996;49.546;7.400;2023-12-20T08:50:46;98961.00;;;4.15;100.00
68948;BME280;55996;49.546;7.400;2023-12-20T08:53:13;98952.41;;;4.13;100.00
68948;BME280;55996;49.546;7.400;2023-12-20T08:55:40;98959.28;;;4.22;100.00
68948;BME280;55996;49.546;7.400;2023-12-20T08:58:06;98961.03;;;4.18;100.00
68948;BME280;55996;49.546;7.400;2023-12-20T09:00:33;98961.00;;;4.26;100.00
68948;BME280;55996;49.546;7.400;2023-12-20T09:02:58;98947.22;;;4.26;100.00
68948;BME280;55996;49.546;7.400;2023-12-20T09:05:24;98952.34;;;4.30;100.00
68948;BME280;55996;49.546;7.400;2023-12-20T09:07:50;98965.25;;;4.41;100.00
68948;BME280;55996;49.546;7.400;2023-12-20T09:10:15;98963.53;;;4.39;100.00
68948;BME280;55996;49.546;7.400;2023-12-20T09:12:41;98968.69;;;4.49;100.00
68948;BME280;55996;49.546;7.400;2023-12-20T09:15:08;98960.91;;;4.56;100.00
68948;BME280;55996;49.546;7.400;2023-12-20T09:17:33;98966.09;;;4.49;100.00
68948;BME280;55996;49.546;7.400;2023-12-20T09:19:59;98973.00;;;4.50;100.00
68948;BME280;55996;49.546;7.400;2023-12-20T09:22:25;98976.50;;;4.37;100.00
68948;BME280;55996;49.546;7.400;2023-12-20T09:24:50;98983.41;;;4.38;100.00
68948;BME280;55996;49.546;7.400;2023-12-20T09:27:16;98985.16;;;4.33;100.00
68948;BME280;55996;49.546;7.400;2023-12-20T09:29:41;98975.63;;;4.30;100.00
68948;BME280;55996;49.546;7.400;2023-12-20T09:32:07;98984.28;;;4.28;100.00
68948;BME280;55996;49.546;7.400;2023-12-20T09:34:33;98979.97;;;4.30;100.00
68948;BME280;55996;49.546;7.400;2023-12-20T09:36:58;98982.53;;;4.34;100.00
68948;BME280;55996;49.546;7.400;2023-12-20T09:39:24;98967.00;;;4.41;100.00
68948;BME280;55996;49.546;7.400;2023-12-20T09:42:04;98979.06;;;4.40;100.00
68948;BME280;55996;49.546;7.400;2023-12-20T09:44:30;98972.19;;;4.30;100.00
68948;BME280;55996;49.546;7.400;2023-12-20T09:46:57;98975.63;;;4.30;100.00
68948;BME280;55996;49.546;7.400;2023-12-20T09:49:22;98968.69;;;4.46;100.00
68948;BME280;55996;49.546;7.400;2023-12-20T09:51:50;98968.69;;;4.49;100.00
68948;BME280;55996;49.546;7.400;2023-12-20T09:54:19;98972.16;;;4.42;100.00
68948;BME280;55996;49.546;7.400;2023-12-20T09:56:45;98976.47;;;4.43;100.00
68948;BME280;55996;49.546;7.400;2023-12-20T09:59:11;98979.06;;;4.34;100.00
68948;BME280;55996;49.546;7.400;2023-12-20T10:01:42;98978.22;;;4.38;100.00
68948;BME280;55996;49.546;7.400;2023-12-20T10:04:09;98966.16;;;4.35;100.00
68948;BME280;55996;49.546;7.400;2023-12-20T10:06:41;98985.13;;;4.39;100.00
68948;BME280;55996;49.546;7.400;2023-12-20T10:09:07;98986.00;;;4.38;100.00
68948;BME280;55996;49.546;7.400;2023-12-20T10:11:35;98981.66;;;4.40;100.00
68948;BME280;55996;49.546;7.400;2023-12-20T10:14:00;98967.84;;;4.44;100.00
68948;BME280;55996;49.546;7.400;2023-12-20T10:16:27;98969.56;;;4.42;100.00
68948;BME280;55996;49.546;7.400;2023-12-20T10:18:56;98971.28;;;4.46;100.00
68948;BME280;55996;49.546;7.400;2023-12-20T10:21:25;98963.47;;;4.52;100.00
68948;BME280;55996;49.546;7.400;2023-12-20T10:23:57;98969.59;;;4.41;100.00
68948;BME280;55996;49.546;7.400;2023-12-20T10:26:25;98959.19;;;4.44;100.00
68948;BME280;55996;49.546;7.400;2023-12-20T10:28:55;98958.34;;;4.45;100.00
68948;BME280;55996;49.546;7.400;2023-12-20T10:31:27;98970.34;;;4.60;100.00
68948;BME280;55996;49.546;7.400;2023-12-20T10:33:56;98961.78;;;4.51;100.00
68948;BME280;55996;49.546;7.400;2023-12-20T10:36:23;98949.66;;;4.60;100.00
68948;BME280;55996;49.546;7.400;2023-12-20T10:38:50;98938.47;;;4.58;100.00
68948;BME280;55996;49.546;7.400;2023-12-20T10:41:27;98934.09;;;4.69;100.00
68948;BME280;55996;49.546;7.400;2023-12-20T10:44:01;98921.13;;;4.69;100.00
68948;BME280;55996;49.546;7.400;2023-12-20T10:46:27;98919.38;;;4.71;100.00
68948;BME280;55996;49.546;7.400;2023-12-20T10:48:57;98934.94;;;4.68;100.00
68948;BME280;55996;49.546;7.400;2023-12-20T10:51:23;98931.47;;;4.71;100.00
68948;BME280;55996;49.546;7.400;2023-12-20T10:53:52;98929.75;;;4.73;100.00
68948;BME280;55996;49.546;7.400;2023-12-20T10:56:18;98925.41;;;4.70;100.00
68948;BME280;55996;49.546;7.400;2023-12-20T10:58:45;98933.16;;;4.76;100.00
68948;BME280;55996;49.546;7.400;2023-12-20T11:01:15;98913.31;;;4.74;100.00
68948;BME280;55996;49.546;7.400;2023-12-20T11:03:45;98912.38;;;4.85;100.00
68948;BME280;55996;49.546;7.400;2023-12-20T11:08:51;98916.63;;;4.96;100.00
68948;BME280;55996;49.546;7.400;2023-12-20T11:12:10;98905.38;;;5.01;100.00
68948;BME280;55996;49.546;7.400;2023-12-20T11:14:49;98904.53;;;4.99;100.00
68948;BME280;55996;49.546;7.400;2023-12-20T11:17:15;98913.88;;;5.21;100.00
68948;BME280;55996;49.546;7.400;2023-12-20T11:20:04;98910.31;;;5.37;100.00
68948;BME280;55996;49.546;7.400;2023-12-20T11:22:30;98919.78;;;5.37;100.00
68948;BME280;55996;49.546;7.400;2023-12-20T11:25:14;98906.88;;;5.33;100.00
68948;BME280;55996;49.546;7.400;2023-12-20T11:27:43;98902.63;;;5.22;100.00
68948;BME280;55996;49.546;7.400;2023-12-20T11:30:09;98913.03;;;5.19;100.00
68948;BME280;55996;49.546;7.400;2023-12-20T11:32:38;98914.78;;;5.16;100.00
68948;BME280;55996;49.546;7.400;2023-12-20T11:37:38;98915.69;;;5.12;100.00
68948;BME280;55996;49.546;7.400;2023-12-20T11:40:06;98917.31;;;5.20;100.00
68948;BME280;55996;49.546;7.400;2023-12-20T11:42:39;98919.16;;;5.07;100.00
68948;BME280;55996;49.546;7.400;2023-12-20T11:45:08;98925.16;;;5.12;100.00
68948;BME280;55996;49.546;7.400;2023-12-20T11:47:34;98927.75;;;5.13;100.00
68948;BME280;55996;49.546;7.400;2023-12-20T11:50:00;98920.03;;;5.06;100.00
68948;BME280;55996;49.546;7.400;2023-12-20T11:52:28;98913.16;;;4.98;100.00
68948;BME280;55996;49.546;7.400;2023-12-20T11:54:54;98925.22;;;5.01;100.00
68948;BME280;55996;49.546;7.400;2023-12-20T11:57:19;98915.84;;;4.88;100.00
68948;BME280;55996;49.546;7.400;2023-12-20T11:59:44;98903.72;;;4.93;100.00
68948;BME280;55996;49.546;7.400;2023-12-20T12:02:12;98918.31;;;5.03;100.00
68948;BME280;55996;49.546;7.400;2023-12-20T12:04:37;98914.88;;;5.03;100.00
68948;BME280;55996;49.546;7.400;2023-12-20T12:07:03;98926.09;;;5.06;100.00
68948;BME280;55996;49.546;7.400;2023-12-20T12:09:28;98924.38;;;5.04;100.00
68948;BME280;55996;49.546;7.400;2023-12-20T12:11:54;98927.00;;;4.96;100.00
68948;BME280;55996;49.546;7.400;2023-12-20T12:14:21;98920.97;;;4.92;100.00
68948;BME280;55996;49.546;7.400;2023-12-20T12:16:46;98934.75;;;4.99;100.00
68948;BME280;55996;49.546;7.400;2023-12-20T12:19:25;98917.53;;;4.92;100.00
68948;BME280;55996;49.546;7.400;2023-12-20T12:22:03;98918.41;;;4.94;100.00
68948;BME280;55996;49.546;7.400;2023-12-20T12:24:30;98917.44;;;5.06;100.00
68948;BME280;55996;49.546;7.400;2023-12-20T12:26:57;98906.25;;;5.00;100.00
68948;BME280;55996;49.546;7.400;2023-12-20T12:29:22;98907.88;;;5.14;100.00
68948;BME280;55996;49.546;7.400;2023-12-20T12:31:49;98892.09;;;5.43;100.00
68948;BME280;55996;49.546;7.400;2023-12-20T12:34:15;98894.41;;;5.74;100.00
68948;BME280;55996;49.546;7.400;2023-12-20T12:36:41;98900.38;;;5.81;100.00
68948;BME280;55996;49.546;7.400;2023-12-20T12:39:07;98892.69;;;5.73;100.00
68948;BME280;55996;49.546;7.400;2023-12-20T12:41:32;98897.00;;;5.74;100.00
68948;BME280;55996;49.546;7.400;2023-12-20T12:43:57;98890.25;;;5.55;100.00
68948;BME280;55996;49.546;7.400;2023-12-20T12:46:23;98873.06;;;5.44;100.00
68948;BME280;55996;49.546;7.400;2023-12-20T12:48:49;98877.28;;;5.55;100.00
68948;BME280;55996;49.546;7.400;2023-12-20T12:51:15;98872.91;;;5.60;100.00
68948;BME280;55996;49.546;7.400;2023-12-20T12:53:41;98870.09;;;5.81;100.00
68948;BME280;55996;49.546;7.400;2023-12-20T12:56:07;98854.38;;;5.98;100.00
68948;BME280;55996;49.546;7.400;2023-12-20T12:58:33;98853.63;;;5.84;100.00
68948;BME280;55996;49.546;7.400;2023-12-20T13:00:59;98847.72;;;5.71;100.00